sensor_id;sensor_type;location;lat;lon;timestamp;pressure;altitude;pressure_sealevel;temperature;humidity
74631;BME280;63138;55.082;38.804;2023-03-19T00:02:19;101317.50;;;-4.78;59.22
74631;BME280;63138;55.082;38.804;2023-03-19T00:04:46;101323.66;;;-4.78;59.19
74631;BME280;63138;55.082;38.804;2023-03-19T00:07:39;101318.44;;;-4.81;59.34
74631;BME280;63138;55.082;38.804;2023-03-19T00:10:10;101317.59;;;-4.82;59.19
74631;BME280;63138;55.082;38.804;2023-03-19T00:13:01;101313.41;;;-4.90;59.18
74631;BME280;63138;55.082;38.804;2023-03-19T00:15:54;101316.88;;;-4.88;59.54
74631;BME280;63138;55.082;38.804;2023-03-19T00:18:24;101319.59;;;-4.90;59.39
74631;BME280;63138;55.082;38.804;2023-03-19T00:20:50;101328.50;;;-4.92;59.62
74631;BME280;63138;55.082;38.804;2023-03-19T00:23:16;101323.31;;;-4.97;59.66
74631;BME280;63138;55.082;38.804;2023-03-19T00:25:45;101323.28;;;-4.95;59.51
74631;BME280;63138;55.082;38.804;2023-03-19T00:28:15;101313.69;;;-5.00;59.71
74631;BME280;63138;55.082;38.804;2023-03-19T00:30:41;101321.63;;;-5.00;60.09
74631;BME280;63138;55.082;38.804;2023-03-19T00:33:09;101313.97;;;-5.09;60.09
74631;BME280;63138;55.082;38.804;2023-03-19T00:35:35;101311.34;;;-5.10;60.57
74631;BME280;63138;55.082;38.804;2023-03-19T00:38:01;101309.56;;;-5.10;60.46
74631;BME280;63138;55.082;38.804;2023-03-19T00:40:30;101310.50;;;-5.11;60.45
74631;BME280;63138;55.082;38.804;2023-03-19T00:42:56;101311.44;;;-5.13;60.69
74631;BME280;63138;55.082;38.804;2023-03-19T00:45:22;101308.75;;;-5.12;61.00
74631;BME280;63138;55.082;38.804;2023-03-19T00:47:48;101300.81;;;-5.13;61.03
74631;BME280;63138;55.082;38.804;2023-03-19T00:50:16;101302.63;;;-5.14;61.08
74631;BME280;63138;55.082;38.804;2023-03-19T00:52:42;101295.69;;;-5.18;60.95
74631;BME280;63138;55.082;38.804;2023-03-19T00:55:08;101295.72;;;-5.20;61.30
74631;BME280;63138;55.082;38.804;2023-03-19T00:57:34;101287.88;;;-5.24;61.47
74631;BME280;63138;55.082;38.804;2023-03-19T01:00:00;101266.97;;;-5.33;61.53
74631;BME280;63138;55.082;38.804;2023-03-19T01:02:26;101293.19;;;-5.24;61.49
74631;BME280;63138;55.082;38.804;2023-03-19T01:05:25;101292.28;;;-5.23;61.88
74631;BME280;63138;55.082;38.804;2023-03-19T01:07:58;101289.72;;;-5.26;61.94
74631;BME280;63138;55.082;38.804;2023-03-19T01:10:32;101274.91;;;-5.33;62.41
74631;BME280;63138;55.082;38.804;2023-03-19T01:13:02;101276.63;;;-5.31;62.03
74631;BME280;63138;55.082;38.804;2023-03-19T01:15:29;101284.59;;;-5.32;62.49
74631;BME280;63138;55.082;38.804;2023-03-19T01:17:55;101277.56;;;-5.33;62.55
74631;BME280;63138;55.082;38.804;2023-03-19T01:20:21;101282.06;;;-5.37;62.70
74631;BME280;63138;55.082;38.804;2023-03-19T01:22:49;101270.69;;;-5.41;62.64
74631;BME280;63138;55.082;38.804;2023-03-19T01:25:17;101281.41;;;-5.44;62.61
74631;BME280;63138;55.082;38.804;2023-03-19T01:27:52;101279.66;;;-5.45;63.06
74631;BME280;63138;55.082;38.804;2023-03-19T01:30:19;101272.72;;;-5.49;62.90
74631;BME280;63138;55.082;38.804;2023-03-19T01:33:33;101270.91;;;-5.48;62.55
74631;BME280;63138;55.082;38.804;2023-03-19T01:36:25;101272.84;;;-5.55;63.00
74631;BME280;63138;55.082;38.804;2023-03-19T01:39:02;101263.44;;;-5.65;63.42
74631;BME280;63138;55.082;38.804;2023-03-19T01:41:28;101266.00;;;-5.62;63.11
74631;BME280;63138;55.082;38.804;2023-03-19T01:44:01;101273.28;;;-5.70;63.91
74631;BME280;63138;55.082;38.804;2023-03-19T01:46:37;101278.47;;;-5.67;64.23
74631;BME280;63138;55.082;38.804;2023-03-19T01:49:27;101262.84;;;-5.77;64.22
74631;BME280;63138;55.082;38.804;2023-03-19T01:52:14;101263.88;;;-5.82;64.99
74631;BME280;63138;55.082;38.804;2023-03-19T01:55:04;101272.63;;;-5.80;65.23
74631;BME280;63138;55.082;38.804;2023-03-19T01:57:48;101270.13;;;-5.85;65.24
74631;BME280;63138;55.082;38.804;2023-03-19T02:00:38;101271.09;;;-5.89;65.71
74631;BME280;63138;55.082;38.804;2023-03-19T02:03:30;101265.97;;;-5.95;66.32
74631;BME280;63138;55.082;38.804;2023-03-19T02:06:09;101259.91;;;-5.97;66.51
74631;BME280;63138;55.082;38.804;2023-03-19T02:08:37;101253.03;;;-6.04;66.47
74631;BME280;63138;55.082;38.804;2023-03-19T02:11:29;101248.72;;;-6.08;67.17
74631;BME280;63138;55.082;38.804;2023-03-19T02:13:59;101245.09;;;-6.04;67.45
74631;BME280;63138;55.082;38.804;2023-03-19T02:16:25;101248.63;;;-6.05;67.58
74631;BME280;63138;55.082;38.804;2023-03-19T02:18:52;101246.88;;;-6.05;67.44
74631;BME280;63138;55.082;38.804;2023-03-19T02:21:47;101237.22;;;-6.07;67.34
74631;BME280;63138;55.082;38.804;2023-03-19T02:24:25;101233.78;;;-6.11;68.21
74631;BME280;63138;55.082;38.804;2023-03-19T02:27:10;101243.47;;;-6.10;67.10
74631;BME280;63138;55.082;38.804;2023-03-19T02:29:41;101247.88;;;-6.10;67.58
74631;BME280;63138;55.082;38.804;2023-03-19T02:32:07;101242.69;;;-6.13;67.38
74631;BME280;63138;55.082;38.804;2023-03-19T02:34:38;101251.50;;;-6.15;67.58
74631;BME280;63138;55.082;38.804;2023-03-19T02:37:30;101244.50;;;-6.16;67.83
74631;BME280;63138;55.082;38.804;2023-03-19T02:39:59;101252.38;;;-6.14;68.03
74631;BME280;63138;55.082;38.804;2023-03-19T02:42:29;101246.19;;;-6.13;68.04
74631;BME280;63138;55.082;38.804;2023-03-19T02:44:56;101253.28;;;-6.15;68.05
74631;BME280;63138;55.082;38.804;2023-03-19T02:47:24;101243.63;;;-6.18;68.11
74631;BME280;63138;55.082;38.804;2023-03-19T02:49:50;101227.91;;;-6.22;68.63
74631;BME280;63138;55.082;38.804;2023-03-19T02:52:21;101230.59;;;-6.24;68.72
74631;BME280;63138;55.082;38.804;2023-03-19T02:54:47;101246.38;;;-6.21;68.36
74631;BME280;63138;55.082;38.804;2023-03-19T03:00:30;101227.91;;;-6.22;68.90
74631;BME280;63138;55.082;38.804;2023-03-19T03:02:56;101238.56;;;-6.25;68.97
74631;BME280;63138;55.082;38.804;2023-03-19T03:05:23;101238.59;;;-6.27;69.01
74631;BME280;63138;55.082;38.804;2023-03-19T03:07:50;101238.72;;;-6.31;69.46
74631;BME280;63138;55.082;38.804;2023-03-19T03:10:20;101225.72;;;-6.41;70.04
74631;BME280;63138;55.082;38.804;2023-03-19T03:12:47;101239.75;;;-6.37;70.11
74631;BME280;63138;55.082;38.804;2023-03-19T03:15:13;101237.16;;;-6.40;70.33
74631;BME280;63138;55.082;38.804;2023-03-19T03:17:40;101233.66;;;-6.41;71.34
74631;BME280;63138;55.082;38.804;2023-03-19T03:20:08;101238.16;;;-6.44;71.00
74631;BME280;63138;55.082;38.804;2023-03-19T03:22:36;101228.50;;;-6.47;70.83
74631;BME280;63138;55.082;38.804;2023-03-19T03:25:05;101232.97;;;-6.49;70.64
74631;BME280;63138;55.082;38.804;2023-03-19T03:27:59;101235.69;;;-6.54;70.30
74631;BME280;63138;55.082;38.804;2023-03-19T03:30:25;101230.50;;;-6.57;70.76
74631;BME280;63138;55.082;38.804;2023-03-19T03:32:52;101222.63;;;-6.58;70.80
74631;BME280;63138;55.082;38.804;2023-03-19T03:35:18;101205.25;;;-6.70;70.61
74631;BME280;63138;55.082;38.804;2023-03-19T03:37:48;101228.78;;;-6.59;71.33
74631;BME280;63138;55.082;38.804;2023-03-19T03:40:15;101222.59;;;-6.57;71.08
74631;BME280;63138;55.082;38.804;2023-03-19T03:42:43;101220.81;;;-6.58;71.07
74631;BME280;63138;55.082;38.804;2023-03-19T03:45:09;101219.09;;;-6.59;71.49
74631;BME280;63138;55.082;38.804;2023-03-19T03:47:38;101210.25;;;-6.58;71.45
74631;BME280;63138;55.082;38.804;2023-03-19T03:50:04;101207.63;;;-6.58;71.24
74631;BME280;63138;55.082;38.804;2023-03-19T03:52:31;101203.13;;;-6.54;71.99
74631;BME280;63138;55.082;38.804;2023-03-19T03:55:00;101202.34;;;-6.58;71.77
74631;BME280;63138;55.082;38.804;2023-03-19T03:57:26;101206.72;;;-6.57;72.19
74631;BME280;63138;55.082;38.804;2023-03-19T03:59:54;101213.66;;;-6.53;71.97
74631;BME280;63138;55.082;38.804;2023-03-19T04:02:25;101197.94;;;-6.57;71.78
74631;BME280;63138;55.082;38.804;2023-03-19T04:04:52;101208.38;;;-6.53;72.33
74631;BME280;63138;55.082;38.804;2023-03-19T04:07:43;101189.88;;;-6.53;72.37
74631;BME280;63138;55.082;38.804;2023-03-19T04:10:11;101194.41;;;-6.58;72.28
74631;BME280;63138;55.082;38.804;2023-03-19T04:12:38;101197.81;;;-6.53;72.85
74631;BME280;63138;55.082;38.804;2023-03-19T04:15:08;101196.97;;;-6.55;72.51
74631;BME280;63138;55.082;38.804;2023-03-19T04:17:38;101195.38;;;-6.60;72.22
74631;BME280;63138;55.082;38.804;2023-03-19T04:20:05;101198.75;;;-6.55;72.50
74631;BME280;63138;55.082;38.804;2023-03-19T04:22:32;101196.06;;;-6.54;72.61
74631;BME280;63138;55.082;38.804;2023-03-19T04:25:01;101193.34;;;-6.50;72.88
74631;BME280;63138;55.082;38.804;2023-03-19T04:27:28;101193.28;;;-6.47;72.11
74631;BME280;63138;55.082;38.804;2023-03-19T04:29:54;101182.63;;;-6.44;72.26
74631;BME280;63138;55.082;38.804;2023-03-19T04:32:20;101191.41;;;-6.42;72.18
74631;BME280;63138;55.082;38.804;2023-03-19T04:34:46;101186.94;;;-6.40;72.14
74631;BME280;63138;55.082;38.804;2023-03-19T04:37:20;101181.59;;;-6.37;72.02
74631;BME280;63138;55.082;38.804;2023-03-19T04:39:49;101173.72;;;-6.40;72.00
74631;BME280;63138;55.082;38.804;2023-03-19T04:42:16;101188.38;;;-6.28;71.88
74631;BME280;63138;55.082;38.804;2023-03-19T04:44:58;101180.44;;;-6.28;71.79
74631;BME280;63138;55.082;38.804;2023-03-19T04:47:24;101186.53;;;-6.25;71.80
74631;BME280;63138;55.082;38.804;2023-03-19T04:49:53;101173.19;;;-6.20;71.51
74631;BME280;63138;55.082;38.804;2023-03-19T04:52:21;101178.38;;;-6.16;71.63
74631;BME280;63138;55.082;38.804;2023-03-19T04:54:48;101177.47;;;-6.15;71.87
74631;BME280;63138;55.082;38.804;2023-03-19T04:57:15;101172.03;;;-6.08;71.32
74631;BME280;63138;55.082;38.804;2023-03-19T04:59:42;101167.59;;;-6.08;70.99
74631;BME280;63138;55.082;38.804;2023-03-19T05:02:12;101172.66;;;-6.00;71.15
74631;BME280;63138;55.082;38.804;2023-03-19T05:04:40;101175.34;;;-6.02;70.30
74631;BME280;63138;55.082;38.804;2023-03-19T05:07:09;101171.66;;;-5.96;69.98
74631;BME280;63138;55.082;38.804;2023-03-19T05:09:37;101164.56;;;-5.94;70.09
74631;BME280;63138;55.082;38.804;2023-03-19T05:12:03;101170.47;;;-5.86;69.74
74631;BME280;63138;55.082;38.804;2023-03-19T05:14:37;101163.56;;;-5.90;70.07
74631;BME280;63138;55.082;38.804;2023-03-19T05:17:11;101174.88;;;-5.85;70.32
74631;BME280;63138;55.082;38.804;2023-03-19T05:19:48;101172.72;;;-5.70;70.21
74631;BME280;63138;55.082;38.804;2023-03-19T05:22:15;101164.59;;;-5.64;69.54
74631;BME280;63138;55.082;38.804;2023-03-19T05:24:47;101161.91;;;-5.63;69.80
74631;BME280;63138;55.082;38.804;2023-03-19T05:27:15;101162.69;;;-5.59;69.53
74631;BME280;63138;55.082;38.804;2023-03-19T05:30:05;101160.69;;;-5.51;69.23
74631;BME280;63138;55.082;38.804;2023-03-19T05:32:50;101155.09;;;-5.40;69.12
74631;BME280;63138;55.082;38.804;2023-03-19T05:35:29;101157.78;;;-5.42;68.48
74631;BME280;63138;55.082;38.804;2023-03-19T05:37:56;101155.72;;;-5.32;68.69
74631;BME280;63138;55.082;38.804;2023-03-19T05:40:23;101154.59;;;-5.25;68.87
74631;BME280;63138;55.082;38.804;2023-03-19T05:42:50;101150.00;;;-5.18;68.53
74631;BME280;63138;55.082;38.804;2023-03-19T05:45:19;101143.47;;;-5.08;67.93
74631;BME280;63138;55.082;38.804;2023-03-19T05:47:50;101134.56;;;-5.04;67.30
74631;BME280;63138;55.082;38.804;2023-03-19T05:50:17;101138.47;;;-4.89;67.38
74631;BME280;63138;55.082;38.804;2023-03-19T05:53:03;101138.13;;;-4.78;67.03
74631;BME280;63138;55.082;38.804;2023-03-19T05:55:31;101141.81;;;-4.82;67.08
74631;BME280;63138;55.082;38.804;2023-03-19T05:58:07;101140.53;;;-4.70;66.72
74631;BME280;63138;55.082;38.804;2023-03-19T06:00:34;101143.53;;;-4.54;66.43
74631;BME280;63138;55.082;38.804;2023-03-19T06:03:01;101139.31;;;-4.33;66.42
74631;BME280;63138;55.082;38.804;2023-03-19T06:05:37;101147.88;;;-4.00;65.52
74631;BME280;63138;55.082;38.804;2023-03-19T06:08:21;101131.38;;;-2.27;61.11
74631;BME280;63138;55.082;38.804;2023-03-19T06:11:07;101133.66;;;-0.82;56.37
74631;BME280;63138;55.082;38.804;2023-03-19T06:13:36;101125.63;;;0.07;53.35
74631;BME280;63138;55.082;38.804;2023-03-19T06:16:06;101120.78;;;0.97;50.74
74631;BME280;63138;55.082;38.804;2023-03-19T06:18:35;101114.78;;;2.00;48.54
74631;BME280;63138;55.082;38.804;2023-03-19T06:21:06;101113.97;;;2.71;46.35
74631;BME280;63138;55.082;38.804;2023-03-19T06:23:33;101112.34;;;3.37;44.16
74631;BME280;63138;55.082;38.804;2023-03-19T06:26:02;101112.75;;;3.31;43.22
74631;BME280;63138;55.082;38.804;2023-03-19T06:28:33;101110.00;;;3.73;42.72
74631;BME280;63138;55.082;38.804;2023-03-19T06:31:00;101103.47;;;4.41;41.06
74631;BME280;63138;55.082;38.804;2023-03-19T06:33:45;101102.50;;;5.05;39.00
74631;BME280;63138;55.082;38.804;2023-03-19T06:36:12;101094.63;;;5.74;38.36
74631;BME280;63138;55.082;38.804;2023-03-19T06:38:40;101101.19;;;6.52;36.67
74631;BME280;63138;55.082;38.804;2023-03-19T06:41:32;101090.44;;;7.07;34.96
74631;BME280;63138;55.082;38.804;2023-03-19T06:44:09;101104.44;;;7.77;33.91
74631;BME280;63138;55.082;38.804;2023-03-19T06:46:35;101100.69;;;7.36;33.51
74631;BME280;63138;55.082;38.804;2023-03-19T06:49:02;101101.88;;;7.43;33.65
74631;BME280;63138;55.082;38.804;2023-03-19T06:51:27;101104.47;;;7.98;32.63
74631;BME280;63138;55.082;38.804;2023-03-19T06:53:55;101095.84;;;8.35;31.90
74631;BME280;63138;55.082;38.804;2023-03-19T06:56:21;101099.72;;;8.94;31.20
74631;BME280;63138;55.082;38.804;2023-03-19T06:58:47;101103.06;;;8.46;31.52
74631;BME280;63138;55.082;38.804;2023-03-19T07:01:13;101096.53;;;8.06;32.04
74631;BME280;63138;55.082;38.804;2023-03-19T07:03:40;101089.94;;;7.99;32.33
74631;BME280;63138;55.082;38.804;2023-03-19T07:06:05;101081.91;;;8.60;31.46
74631;BME280;63138;55.082;38.804;2023-03-19T07:08:32;101090.44;;;8.35;31.92
74631;BME280;63138;55.082;38.804;2023-03-19T07:11:05;101090.28;;;7.84;32.40
74631;BME280;63138;55.082;38.804;2023-03-19T07:13:32;101090.94;;;7.77;32.63
74631;BME280;63138;55.082;38.804;2023-03-19T07:15:59;101088.41;;;6.65;33.36
74631;BME280;63138;55.082;38.804;2023-03-19T07:18:25;101077.50;;;6.67;34.91
74631;BME280;63138;55.082;38.804;2023-03-19T07:20:52;101081.19;;;6.77;33.73
74631;BME280;63138;55.082;38.804;2023-03-19T07:23:19;101069.41;;;6.33;34.89
74631;BME280;63138;55.082;38.804;2023-03-19T07:25:50;101060.22;;;6.47;34.98
74631;BME280;63138;55.082;38.804;2023-03-19T07:28:20;101074.53;;;6.59;34.55
74631;BME280;63138;55.082;38.804;2023-03-19T07:30:46;101062.91;;;6.47;35.02
74631;BME280;63138;55.082;38.804;2023-03-19T07:33:12;101064.47;;;6.83;34.30
74631;BME280;63138;55.082;38.804;2023-03-19T07:35:39;101057.97;;;7.18;34.05
74631;BME280;63138;55.082;38.804;2023-03-19T07:38:04;101058.34;;;6.70;34.15
74631;BME280;63138;55.082;38.804;2023-03-19T07:40:31;101054.88;;;6.91;34.61
74631;BME280;63138;55.082;38.804;2023-03-19T07:42:57;101048.91;;;6.76;34.67
74631;BME280;63138;55.082;38.804;2023-03-19T07:45:23;101047.31;;;6.62;35.08
74631;BME280;63138;55.082;38.804;2023-03-19T07:47:49;101049.13;;;6.73;34.91
74631;BME280;63138;55.082;38.804;2023-03-19T07:50:17;101050.97;;;6.83;34.36
74631;BME280;63138;55.082;38.804;2023-03-19T07:52:45;101041.19;;;6.60;34.62
74631;BME280;63138;55.082;38.804;2023-03-19T07:55:13;101039.22;;;6.62;34.88
74631;BME280;63138;55.082;38.804;2023-03-19T07:58:05;101041.94;;;6.17;35.71
74631;BME280;63138;55.082;38.804;2023-03-19T08:00:32;101031.78;;;5.85;36.64
74631;BME280;63138;55.082;38.804;2023-03-19T08:02:58;101034.66;;;6.62;35.63
74631;BME280;63138;55.082;38.804;2023-03-19T08:05:24;101028.84;;;7.01;34.70
74631;BME280;63138;55.082;38.804;2023-03-19T08:07:53;101037.06;;;7.32;34.43
74631;BME280;63138;55.082;38.804;2023-03-19T08:10:19;101032.09;;;6.49;35.64
74631;BME280;63138;55.082;38.804;2023-03-19T08:12:48;101026.22;;;6.56;35.64
74631;BME280;63138;55.082;38.804;2023-03-19T08:15:14;101017.38;;;7.41;34.40
74631;BME280;63138;55.082;38.804;2023-03-19T08:17:40;101025.84;;;7.04;34.66
74631;BME280;63138;55.082;38.804;2023-03-19T08:20:17;101027.72;;;7.36;34.93
74631;BME280;63138;55.082;38.804;2023-03-19T08:23:08;101016.25;;;8.37;33.51
74631;BME280;63138;55.082;38.804;2023-03-19T08:25:34;101019.75;;;8.49;32.32
74631;BME280;63138;55.082;38.804;2023-03-19T08:28:00;101010.88;;;8.16;33.34
74631;BME280;63138;55.082;38.804;2023-03-19T08:30:26;101012.38;;;8.61;32.88
74631;BME280;63138;55.082;38.804;2023-03-19T08:32:53;101007.50;;;8.55;32.83
74631;BME280;63138;55.082;38.804;2023-03-19T08:35:19;101012.19;;;7.91;33.73
74631;BME280;63138;55.082;38.804;2023-03-19T08:37:46;101007.75;;;7.90;34.26
74631;BME280;63138;55.082;38.804;2023-03-19T08:40:31;101009.34;;;7.93;34.32
74631;BME280;63138;55.082;38.804;2023-03-19T08:42:57;101009.16;;;8.15;33.77
74631;BME280;63138;55.082;38.804;2023-03-19T08:45:24;101009.50;;;8.53;33.48
74631;BME280;63138;55.082;38.804;2023-03-19T08:47:50;101002.09;;;8.55;33.27
74631;BME280;63138;55.082;38.804;2023-03-19T08:50:16;101002.66;;;8.49;33.29
74631;BME280;63138;55.082;38.804;2023-03-19T08:52:49;100998.34;;;7.63;34.34
74631;BME280;63138;55.082;38.804;2023-03-19T08:55:42;101008.97;;;7.55;35.37
74631;BME280;63138;55.082;38.804;2023-03-19T08:58:08;100997.22;;;7.87;35.09
74631;BME280;63138;55.082;38.804;2023-03-19T09:01:00;100995.13;;;7.70;34.78
74631;BME280;63138;55.082;38.804;2023-03-19T09:03:27;100995.41;;;7.34;35.25
74631;BME280;63138;55.082;38.804;2023-03-19T09:05:57;100997.16;;;7.03;35.99
74631;BME280;63138;55.082;38.804;2023-03-19T09:08:25;100985.28;;;6.28;37.59
74631;BME280;63138;55.082;38.804;2023-03-19T09:10:51;100987.47;;;6.45;37.31
74631;BME280;63138;55.082;38.804;2023-03-19T09:13:17;100987.38;;;6.13;38.81
74631;BME280;63138;55.082;38.804;2023-03-19T09:16:09;100983.06;;;6.33;38.79
74631;BME280;63138;55.082;38.804;2023-03-19T09:18:35;100977.13;;;6.62;38.28
74631;BME280;63138;55.082;38.804;2023-03-19T09:21:02;100970.06;;;6.38;39.27
74631;BME280;63138;55.082;38.804;2023-03-19T09:23:28;100977.06;;;6.96;38.62
74631;BME280;63138;55.082;38.804;2023-03-19T09:25:54;100969.53;;;7.32;37.57
74631;BME280;63138;55.082;38.804;2023-03-19T09:28:21;100967.81;;;7.31;37.87
74631;BME280;63138;55.082;38.804;2023-03-19T09:30:48;100967.34;;;6.49;39.36
74631;BME280;63138;55.082;38.804;2023-03-19T09:33:17;100964.75;;;6.48;38.87
74631;BME280;63138;55.082;38.804;2023-03-19T09:35:52;100957.75;;;6.57;39.11
74631;BME280;63138;55.082;38.804;2023-03-19T09:38:20;100958.66;;;6.46;38.81
74631;BME280;63138;55.082;38.804;2023-03-19T09:44:18;100952.16;;;6.48;39.32
74631;BME280;63138;55.082;38.804;2023-03-19T09:49:37;100945.44;;;5.98;41.24
74631;BME280;63138;55.082;38.804;2023-03-19T09:52:29;100940.81;;;6.00;40.54
74631;BME280;63138;55.082;38.804;2023-03-19T09:55:02;100942.34;;;5.80;40.84
74631;BME280;63138;55.082;38.804;2023-03-19T09:57:32;100928.75;;;5.59;40.82
74631;BME280;63138;55.082;38.804;2023-03-19T10:00:00;100943.16;;;5.35;41.94
74631;BME280;63138;55.082;38.804;2023-03-19T10:02:39;100929.75;;;5.80;41.79
74631;BME280;63138;55.082;38.804;2023-03-19T10:08:16;100919.53;;;5.50;41.30
74631;BME280;63138;55.082;38.804;2023-03-19T10:13:58;100915.16;;;5.60;41.75
74631;BME280;63138;55.082;38.804;2023-03-19T10:16:53;100904.16;;;5.16;42.76
74631;BME280;63138;55.082;38.804;2023-03-19T10:19:40;100916.75;;;5.16;42.80
74631;BME280;63138;55.082;38.804;2023-03-19T10:22:20;100907.47;;;5.20;42.82
74631;BME280;63138;55.082;38.804;2023-03-19T10:24:49;100914.38;;;5.35;42.64
74631;BME280;63138;55.082;38.804;2023-03-19T10:27:20;100907.66;;;5.52;42.49
74631;BME280;63138;55.082;38.804;2023-03-19T10:29:47;100904.38;;;5.71;42.40
74631;BME280;63138;55.082;38.804;2023-03-19T10:32:37;100903.09;;;5.42;42.53
74631;BME280;63138;55.082;38.804;2023-03-19T10:35:18;100905.84;;;5.64;41.40
74631;BME280;63138;55.082;38.804;2023-03-19T10:37:47;100899.34;;;5.67;41.67
74631;BME280;63138;55.082;38.804;2023-03-19T10:40:29;100907.75;;;5.28;43.29
74631;BME280;63138;55.082;38.804;2023-03-19T10:43:10;100900.59;;;5.05;43.79
74631;BME280;63138;55.082;38.804;2023-03-19T10:45:44;100890.84;;;5.15;44.42
74631;BME280;63138;55.082;38.804;2023-03-19T10:48:29;100890.47;;;5.31;43.94
74631;BME280;63138;55.082;38.804;2023-03-19T10:51:03;100887.94;;;5.41;43.82
74631;BME280;63138;55.082;38.804;2023-03-19T10:53:36;100892.31;;;5.30;44.34
74631;BME280;63138;55.082;38.804;2023-03-19T10:56:15;100895.25;;;5.27;44.46
74631;BME280;63138;55.082;38.804;2023-03-19T10:59:04;100884.78;;;5.00;44.42
74631;BME280;63138;55.082;38.804;2023-03-19T11:01:40;100886.50;;;5.01;45.15
74631;BME280;63138;55.082;38.804;2023-03-19T11:04:17;100881.97;;;5.02;45.03
74631;BME280;63138;55.082;38.804;2023-03-19T11:07:28;100887.47;;;5.00;45.23
74631;BME280;63138;55.082;38.804;2023-03-19T11:09:56;100878.56;;;5.11;45.12
74631;BME280;63138;55.082;38.804;2023-03-19T11:12:31;100878.84;;;5.19;44.26
74631;BME280;63138;55.082;38.804;2023-03-19T11:14:59;100879.22;;;5.26;44.84
74631;BME280;63138;55.082;38.804;2023-03-19T11:17:44;100870.47;;;5.11;44.79
74631;BME280;63138;55.082;38.804;2023-03-19T11:20:26;100874.63;;;5.04;44.97
74631;BME280;63138;55.082;38.804;2023-03-19T11:23:19;100864.03;;;4.78;45.44
74631;BME280;63138;55.082;38.804;2023-03-19T11:25:52;100870.16;;;4.80;46.14
74631;BME280;63138;55.082;38.804;2023-03-19T11:28:21;100871.06;;;4.92;45.33
74631;BME280;63138;55.082;38.804;2023-03-19T11:40:08;100856.97;;;4.53;46.19
74631;BME280;63138;55.082;38.804;2023-03-19T11:42:50;100857.28;;;4.48;46.22
74631;BME280;63138;55.082;38.804;2023-03-19T11:45:34;100856.97;;;4.29;46.46
74631;BME280;63138;55.082;38.804;2023-03-19T11:51:08;100852.31;;;4.07;47.00
74631;BME280;63138;55.082;38.804;2023-03-19T11:54:10;100844.81;;;3.99;47.88
74631;BME280;63138;55.082;38.804;2023-03-19T11:56:50;100846.59;;;3.74;48.07
74631;BME280;63138;55.082;38.804;2023-03-19T12:10:37;100819.72;;;4.11;47.65
74631;BME280;63138;55.082;38.804;2023-03-19T12:16:51;100812.00;;;3.70;48.21
74631;BME280;63138;55.082;38.804;2023-03-19T12:19:39;100795.75;;;3.34;49.25
74631;BME280;63138;55.082;38.804;2023-03-19T12:25:40;100799.84;;;3.14;49.71
74631;BME280;63138;55.082;38.804;2023-03-19T12:30:43;100796.31;;;3.01;49.71
74631;BME280;63138;55.082;38.804;2023-03-19T12:33:20;100792.19;;;2.70;50.57
74631;BME280;63138;55.082;38.804;2023-03-19T12:35:54;100794.25;;;2.79;50.44
74631;BME280;63138;55.082;38.804;2023-03-19T12:38:39;100794.69;;;2.85;51.16
74631;BME280;63138;55.082;38.804;2023-03-19T12:41:28;100778.16;;;2.92;51.08
74631;BME280;63138;55.082;38.804;2023-03-19T12:47:03;100775.47;;;2.79;51.06
74631;BME280;63138;55.082;38.804;2023-03-19T12:49:32;100751.84;;;2.58;51.53
74631;BME280;63138;55.082;38.804;2023-03-19T12:54:55;100762.53;;;2.33;52.38
74631;BME280;63138;55.082;38.804;2023-03-19T12:57:33;100767.59;;;2.50;52.58
74631;BME280;63138;55.082;38.804;2023-03-19T13:10:44;100737.34;;;2.48;53.17
74631;BME280;63138;55.082;38.804;2023-03-19T13:19:09;100728.09;;;2.26;53.82
74631;BME280;63138;55.082;38.804;2023-03-19T13:21:40;100733.69;;;2.23;52.94
74631;BME280;63138;55.082;38.804;2023-03-19T13:24:28;100731.97;;;2.22;54.29
74631;BME280;63138;55.082;38.804;2023-03-19T13:26:57;100728.09;;;2.26;54.32
74631;BME280;63138;55.082;38.804;2023-03-19T13:29:27;100727.16;;;2.40;53.97
74631;BME280;63138;55.082;38.804;2023-03-19T13:32:06;100716.81;;;2.21;53.53
74631;BME280;63138;55.082;38.804;2023-03-19T13:34:36;100723.25;;;2.06;53.89
74631;BME280;63138;55.082;38.804;2023-03-19T13:37:11;100709.00;;;1.78;54.64
74631;BME280;63138;55.082;38.804;2023-03-19T13:39:38;100712.44;;;2.07;54.67
74631;BME280;63138;55.082;38.804;2023-03-19T13:51:02;100696.03;;;2.25;53.82
74631;BME280;63138;55.082;38.804;2023-03-19T13:53:57;100698.69;;;2.12;54.86
74631;BME280;63138;55.082;38.804;2023-03-19T13:56:31;100682.38;;;1.89;54.89
74631;BME280;63138;55.082;38.804;2023-03-19T14:01:42;100687.81;;;1.88;55.79
74631;BME280;63138;55.082;38.804;2023-03-19T14:06:56;100671.63;;;1.77;55.69
74631;BME280;63138;55.082;38.804;2023-03-19T14:09:46;100665.44;;;1.62;55.10
74631;BME280;63138;55.082;38.804;2023-03-19T14:17:18;100656.91;;;1.42;55.84
74631;BME280;63138;55.082;38.804;2023-03-19T14:19:46;100659.44;;;1.31;56.51
74631;BME280;63138;55.082;38.804;2023-03-19T14:22:34;100659.09;;;1.50;56.65
74631;BME280;63138;55.082;38.804;2023-03-19T14:25:27;100662.69;;;1.36;56.41
74631;BME280;63138;55.082;38.804;2023-03-19T14:27:56;100647.47;;;1.37;56.63
74631;BME280;63138;55.082;38.804;2023-03-19T14:30:30;100656.19;;;1.26;56.84
74631;BME280;63138;55.082;38.804;2023-03-19T14:33:01;100658.22;;;1.22;56.85
74631;BME280;63138;55.082;38.804;2023-03-19T14:36:22;100667.47;;;1.31;56.75
74631;BME280;63138;55.082;38.804;2023-03-19T14:39:33;100665.72;;;1.44;56.71
74631;BME280;63138;55.082;38.804;2023-03-19T14:42:02;100671.06;;;1.44;56.13
74631;BME280;63138;55.082;38.804;2023-03-19T14:44:48;100655.41;;;1.38;56.24
74631;BME280;63138;55.082;38.804;2023-03-19T14:53:23;100657.53;;;1.19;56.82